Keene, CA (93531)

9:25 AM PDT on September 22, 2014 (GMT -0700)
Deer Creek, Hart Flat, CA, US | Change Station
CLOSE
Current Station
Personal Weather Station
Location: Keene, CA
Elevation: 2854 ft
Nearby Weather Stations

Elev 2854 ft 35.25 °N, 118.61 °W | Updated 36 seconds ago

Clear
Clear
74.2 °F
Feels Like 77 °F
N
1.0
Wind Variable Wind from West
Gusts 4.0 mph

Today
High -- | Low -- °F
--% Chance of Precip.
Yesterday
High -- | Low -- °F
Precip. -- in
6:42 AM 6:51 PM
Waning Crescent, 2% visible
Pressure 30.15 in
Visibility 10.0 miles
Clouds Clear
Heat Index 77 °F
Dew Point 52 °F
Humidity 45%
Rainfall 0.00 in
Snow Depth 0 in , 0 in , 0 in
UV 1.1 out of 12
Pollen 6.80 out of 12
Ozone Good
PM2.5 Good
Flu Activity Not available.
METAR KTSP 221615Z AUTO 18003KT 10SM CLR 19/09 A3015 RMK AO2

More Conditions Fewer Conditions

Pressure 30.15 in
Visibility 10.0 miles
Clouds Clear
Heat Index 77 °F
Dew Point 52 °F
Humidity 45%
Rainfall 0.00 in
Snow Depth 0 in , 0 in , 0 in
UV 1.1 out of 12
Pollen 6.80 out of 12
Ozone Good
PM2.5 Good
Flu Activity Not available.
METAR KTSP 221615Z AUTO 18003KT 10SM CLR 19/09 A3015 RMK AO2

More Conditions Fewer Conditions

10-Day Weather Forecast

Almanac

Astronomy

Sep. 22, 2014 Rise Set
Actual Time 6:42 AM PDT 6:51 PM PDT
Civil Twilight 6:17 AM PDT 7:16 PM PDT
Nautical Twilight 5:47 AM PDT 7:45 PM PDT
Astronomical Twilight 5:17 AM PDT 8:15 PM PDT
Moon 5:17 AM PDT 6:00 PM PDT
Length of Visible Light 12h 59m
Length of Day
12h 08m
Tomorrow will be 2m 12s shorter.
Waning Crescent, 2% of the Moon is Illuminated
Today
Waning Crescent
Sep 24
New
Oct 1
First Quarter
Oct 8
Full
Oct 15
Last Quarter

Today's Extremes

State Highs State Lows

Community

WunderPhotos

Upload Photos

1,755,478 photos uploaded!

WunderBlogs® & News

By Dr. Jeff Masters
Director of Meteorology, Weather Underground
By Kari Strenfel
Meteorologist, Weather Underground
By Christopher C. Burt
Weather Historian, Weather Underground
September 22, 2014
September 22, 2014
September 22, 2014

Nearby

Air Quality

  Air Quality AQ Index Pollutant
Yesterday Good
OZONE
Yesterday Good
PM2.5
Current Good
PM2.5
Current Good
OZONE
Monday Moderate
OZONE
Tuesday Moderate
OZONE
Wednesday Moderate
OZONE
Thursday Moderate
OZONE
Friday Moderate
OZONE

Snow Depth

Station Depth Elevation
Crowder Flat 0 in 5100 ft
Burnside Lake 0 in 8139 ft
Monitor Pass 0 in 8350 ft
Heavenly Valley 0 in 8850 ft
Summit Meadow 0 in 9122 ft

Earthquake Activity

City Distance Mag. Time & Date
Big Bear Lake, California 111 miles 2.5 7:26 AM PDT
2014-09-22
Inyokern, California 70 miles 3.1 5:33 PM PDT
2014-09-19
Aguanga, California 160 miles 2.5 1:38 AM PDT
2014-09-19
Corcoran, California 82 miles 2.9 3:59 PM PDT
2014-09-18
Minimum magnitude displayed is 2.5.

Coastal Water Temperatures

Place Temperature
No Stations Reporting

Nearby Weather Stations